createdAt,value
2023-08-09T00:01:01.872Z,68.103227
2023-08-09T00:05:18.383Z,68.031457
2023-08-09T00:10:18.435Z,67.551857
2023-08-09T00:15:24.623Z,67.964508
2023-08-09T00:20:24.573Z,68.162808
2023-08-09T00:25:24.594Z,68.452510
2023-08-09T00:31:02.009Z,68.162765
2023-08-09T00:35:24.566Z,67.969598
2023-08-09T00:40:18.386Z,68.253766
2023-08-09T00:45:18.394Z,67.679841
2023-08-09T00:50:18.388Z,67.963532
2023-08-09T00:55:18.390Z,67.866786
2023-08-09T01:00:18.358Z,68.145708
2023-08-09T01:06:01.890Z,68.145708
2023-08-09T01:11:01.832Z,68.420129
2023-08-09T01:15:16.559Z,68.323069
2023-08-09T01:20:18.459Z,68.323069
2023-08-09T01:26:01.873Z,67.854993
2023-08-09T01:31:01.940Z,67.854993
2023-08-09T01:35:16.579Z,67.854993
2023-08-09T01:40:16.596Z,67.854993
2023-08-09T01:45:18.389Z,67.854993
2023-08-09T01:50:18.391Z,67.758087
2023-08-09T01:55:16.614Z,67.758087
2023-08-09T02:00:18.455Z,67.661180
2023-08-09T02:06:01.952Z,67.661180
2023-08-09T02:10:18.476Z,67.564273
2023-08-09T02:16:01.862Z,67.564273
2023-08-09T02:20:18.424Z,67.467365
2023-08-09T02:26:01.946Z,67.467365
2023-08-09T02:31:01.934Z,67.370456
2023-08-09T02:36:01.862Z,66.899288
2023-08-09T02:40:16.630Z,67.176637
2023-08-09T02:46:01.890Z,67.176637
2023-08-09T02:51:01.889Z,67.079726
2023-08-09T02:56:01.913Z,66.609026
2023-08-09T03:01:01.921Z,66.512271
2023-08-09T03:06:01.857Z,66.512271
2023-08-09T03:11:01.900Z,66.318758
2023-08-09T03:15:16.589Z,66.692077
2023-08-09T03:21:01.988Z,66.595164
2023-08-09T03:25:16.606Z,66.498249
2023-08-09T03:30:16.685Z,66.498249
2023-08-09T03:35:16.729Z,66.401334
2023-08-09T03:40:16.608Z,66.304418
2023-08-09T03:45:18.482Z,66.207502
2023-08-09T03:50:18.401Z,65.738203
2023-08-09T03:55:16.621Z,65.738203
2023-08-09T04:00:17.808Z,65.641441
2023-08-09T04:05:17.694Z,65.544679
2023-08-09T04:10:17.756Z,65.544679
2023-08-09T04:15:23.981Z,65.071751
2023-08-09T04:20:17.683Z,65.351153
2023-08-09T04:26:01.167Z,64.975145
2023-08-09T04:30:17.743Z,65.351153
2023-08-09T04:35:54.939Z,64.975145
2023-08-09T04:41:01.208Z,64.878539
2023-08-09T04:45:17.709Z,64.878539
2023-08-09T04:51:01.193Z,64.781932
2023-08-09T04:56:01.227Z,64.685324
2023-08-09T05:00:15.920Z,64.685324
2023-08-09T05:05:15.929Z,64.964092
2023-08-09T05:10:15.983Z,64.964092
2023-08-09T05:15:16.024Z,64.964092
2023-08-09T05:20:15.954Z,64.964092
2023-08-09T05:25:15.993Z,64.492106
2023-08-09T05:30:15.929Z,64.964092
2023-08-09T05:35:16.011Z,64.492106
2023-08-09T05:40:15.950Z,64.492106
2023-08-09T05:45:15.942Z,64.867325
2023-08-09T05:50:15.930Z,64.492106
2023-08-09T05:55:15.901Z,64.770557
2023-08-09T06:00:15.934Z,64.395496
2023-08-09T06:05:15.900Z,64.395496
2023-08-09T06:11:22.827Z,64.770557
2023-08-09T06:15:17.760Z,64.673789
2023-08-09T06:20:17.763Z,64.673789
2023-08-09T06:25:17.733Z,64.673789
2023-08-09T06:30:17.757Z,64.673789
2023-08-09T06:35:17.800Z,64.577020
2023-08-09T06:40:17.757Z,64.947530
2023-08-09T06:45:24.006Z,64.947530
2023-08-09T06:50:17.777Z,64.850605
2023-08-09T06:56:01.203Z,64.753679
2023-08-09T07:01:01.305Z,64.656752
2023-08-09T07:06:01.238Z,64.656752
2023-08-09T07:11:01.307Z,64.656752
2023-08-09T07:16:01.238Z,64.656752
2023-08-09T07:21:01.207Z,64.559825
2023-08-09T07:26:01.192Z,64.656752
2023-08-09T07:30:17.841Z,64.559825
2023-08-09T07:35:17.825Z,64.925584
2023-08-09T07:40:17.775Z,64.925584
2023-08-09T07:45:17.732Z,64.925584
2023-08-09T07:50:17.900Z,64.559825
2023-08-09T07:55:15.896Z,64.462897
2023-08-09T08:00:17.836Z,64.365968
2023-08-09T08:05:17.847Z,64.731419
2023-08-09T08:10:17.845Z,64.634336
2023-08-09T08:15:17.821Z,64.634336
2023-08-09T08:20:17.791Z,64.537252
2023-08-09T08:25:17.840Z,64.801135
2023-08-09T08:31:01.384Z,64.801135
2023-08-09T08:36:21.650Z,64.801135
2023-08-09T08:41:01.212Z,64.801135
2023-08-09T08:46:01.291Z,64.801135
2023-08-09T08:51:01.514Z,64.801135
2023-08-09T08:56:01.273Z,64.801135
2023-08-09T09:00:28.235Z,64.801135
2023-08-09T09:06:01.256Z,64.801135
2023-08-09T09:10:24.041Z,64.801135
2023-08-09T09:15:16.025Z,64.703897
2023-08-09T09:20:17.884Z,64.703897
2023-08-09T09:25:24.644Z,65.060785
2023-08-09T09:31:01.316Z,64.703897
2023-08-09T09:36:01.320Z,65.060785
2023-08-09T09:40:15.996Z,65.060785
2023-08-09T09:45:24.304Z,64.703897
2023-08-09T09:50:16.030Z,64.703897
2023-08-09T09:55:16.047Z,64.801135
2023-08-09T10:01:01.357Z,64.703897
2023-08-09T10:06:01.324Z,64.963397
2023-08-09T10:10:17.848Z,64.606659
2023-08-09T10:15:16.084Z,64.509421
2023-08-09T10:20:16.031Z,64.509421
2023-08-09T10:26:01.350Z,64.768618
2023-08-09T10:30:17.818Z,64.768618
2023-08-09T10:35:17.863Z,64.412182
2023-08-09T10:41:01.317Z,64.866007
2023-08-09T10:45:16.111Z,64.866007
2023-08-09T10:50:17.918Z,64.606659
2023-08-09T10:55:17.917Z,64.963397
2023-08-09T11:01:01.410Z,65.158173
2023-08-09T11:05:17.876Z,64.898371
2023-08-09T11:10:17.937Z,64.634336
2023-08-09T11:15:15.880Z,64.828502
2023-08-09T11:20:17.908Z,64.656752
2023-08-09T11:25:17.934Z,64.480250
2023-08-09T11:30:17.862Z,64.673789
2023-08-09T11:36:01.384Z,64.867325
2023-08-09T11:40:17.964Z,63.921094
2023-08-09T11:45:24.183Z,64.691229
2023-08-09T11:50:17.862Z,64.108910
2023-08-09T11:56:01.423Z,63.906218
2023-08-09T12:00:17.929Z,64.098124
2023-08-09T12:05:16.433Z,63.484195
2023-08-09T12:11:01.367Z,62.753215
2023-08-09T12:15:17.916Z,62.943753
2023-08-09T12:20:17.931Z,62.712275
2023-08-09T12:25:24.197Z,62.474534
2023-08-09T12:30:17.901Z,62.664356
2023-08-09T12:35:17.903Z,61.885020
2023-08-09T12:40:17.916Z,61.533249
2023-08-09T12:45:17.916Z,61.979567
2023-08-09T12:50:18.097Z,61.627610
2023-08-09T12:55:16.110Z,61.721970
2023-08-09T13:01:01.430Z,61.816329
2023-08-09T13:05:18.013Z,61.091583
2023-08-09T13:10:16.216Z,61.279540
2023-08-09T13:16:03.326Z,61.739877
2023-08-09T13:20:17.963Z,61.093894
2023-08-09T13:26:01.436Z,60.806613
2023-08-09T13:30:16.147Z,61.281455
2023-08-09T13:36:01.462Z,60.900197
2023-08-09T13:41:01.433Z,61.087361
2023-08-09T13:45:15.966Z,60.698203
2023-08-09T13:50:17.981Z,60.884964
2023-08-09T13:56:01.460Z,60.674004
2023-08-09T14:00:16.159Z,60.860350
2023-08-09T14:06:01.443Z,61.631954
2023-08-09T14:11:01.391Z,59.894417
2023-08-09T14:15:24.179Z,61.197900
2023-08-09T14:20:18.006Z,61.885158
2023-08-09T14:25:16.153Z,61.476760
2023-08-09T14:30:17.947Z,60.449651
2023-08-09T14:35:18.036Z,60.967297
2023-08-09T14:40:16.161Z,60.264579
2023-08-09T14:46:01.474Z,60.079501
2023-08-09T14:50:18.036Z,60.410804
2023-08-09T14:55:17.978Z,60.503557
2023-08-09T15:01:01.588Z,60.503557
2023-08-09T15:05:16.155Z,59.369578
2023-08-09T15:10:18.010Z,60.264579
2023-08-09T15:16:01.470Z,60.015853
2023-08-09T15:21:01.458Z,60.292805
2023-08-09T15:26:01.424Z,60.477432
2023-08-09T15:30:17.961Z,59.579675
2023-08-09T15:36:01.520Z,59.671546
2023-08-09T15:40:16.183Z,59.855283
2023-08-09T15:46:01.504Z,59.482680
2023-08-09T15:50:17.317Z,59.007914
2023-08-09T15:55:16.226Z,60.314598
2023-08-09T16:00:18.019Z,59.849225
2023-08-09T16:05:18.045Z,60.307370
2023-08-09T16:11:01.510Z,60.765474
2023-08-09T16:15:18.584Z,59.981068
2023-08-09T16:20:18.102Z,59.981068
2023-08-09T16:26:01.493Z,59.798766
2023-08-09T16:30:18.083Z,59.298876
2023-08-09T16:35:16.241Z,58.968718
2023-08-09T16:41:01.563Z,59.844332
2023-08-09T16:46:01.504Z,59.331379
2023-08-09T16:50:16.232Z,60.801341
2023-08-09T16:56:01.469Z,60.389725
2023-08-09T17:00:18.026Z,58.896731
2023-08-09T17:05:16.216Z,58.625484
2023-08-09T17:11:01.487Z,59.059386
2023-08-09T17:15:18.025Z,59.059386
2023-08-09T17:20:16.231Z,59.844332
2023-08-09T17:26:01.544Z,60.026137
2023-08-09T17:30:16.237Z,60.298830
2023-08-09T17:36:01.583Z,61.074734
2023-08-09T17:41:01.532Z,59.965966
2023-08-09T17:45:18.005Z,59.167961
2023-08-09T17:50:18.109Z,59.240717
2023-08-09T17:55:18.018Z,59.753427
2023-08-09T18:00:16.229Z,60.072216
2023-08-09T18:05:18.078Z,60.470262
2023-08-09T18:10:18.036Z,60.072216
2023-08-09T18:15:18.071Z,59.662521
2023-08-09T18:21:01.545Z,60.436792
2023-08-09T18:25:16.223Z,60.710206
2023-08-09T18:30:18.059Z,59.784664
2023-08-09T18:35:18.882Z,59.875316
2023-08-09T18:40:17.008Z,61.165861
2023-08-09T18:45:24.452Z,60.571508
2023-08-09T18:50:18.050Z,60.662397
2023-08-09T18:55:16.280Z,60.662397
2023-08-09T19:01:01.605Z,60.571508
2023-08-09T19:05:24.992Z,60.480617
2023-08-09T19:10:18.084Z,60.480617
2023-08-09T19:15:18.064Z,61.165861
2023-08-09T19:20:16.251Z,60.662397
2023-08-09T19:25:18.104Z,61.025935
2023-08-09T19:30:18.105Z,59.800766
2023-08-09T19:35:18.062Z,59.710371
2023-08-09T19:40:18.040Z,60.147260
2023-08-09T19:46:01.721Z,60.571508
2023-08-09T19:50:16.244Z,60.480617
2023-08-09T19:56:01.533Z,59.784664
2023-08-09T20:00:18.064Z,60.207934
2023-08-09T20:05:16.333Z,60.389725
2023-08-09T20:11:01.556Z,60.662397
2023-08-09T20:15:18.120Z,59.800766
2023-08-09T20:21:01.588Z,60.600463
2023-08-09T20:25:18.036Z,59.440602
2023-08-09T20:30:16.305Z,60.071941
2023-08-09T20:35:18.125Z,59.530740
2023-08-09T20:41:01.607Z,59.530740
2023-08-09T20:45:18.521Z,58.976319
2023-08-09T20:50:18.204Z,58.796555
2023-08-09T20:55:16.297Z,59.440602
2023-08-09T21:00:16.350Z,59.350462
2023-08-09T21:05:16.322Z,59.260321
2023-08-09T21:10:18.130Z,58.526895
2023-08-09T21:15:18.126Z,59.170178
2023-08-09T21:20:18.148Z,59.710371
2023-08-09T21:30:16.300Z,59.619974
2023-08-09T21:35:18.152Z,59.529575
2023-08-09T21:40:18.082Z,59.439174
2023-08-09T21:45:16.290Z,60.056614
2023-08-09T21:50:16.313Z,59.875316
2023-08-09T21:56:01.616Z,60.480617
2023-08-09T22:00:18.092Z,59.875316
2023-08-09T22:05:16.327Z,60.480617
2023-08-09T22:11:01.611Z,60.389725
2023-08-09T22:15:16.250Z,60.389725
2023-08-09T22:20:55.455Z,60.892473
2023-08-09T22:25:16.375Z,60.892473
2023-08-09T22:30:18.163Z,60.801341
2023-08-09T22:36:01.595Z,60.801341
2023-08-09T22:41:01.649Z,60.710206
2023-08-09T22:45:18.095Z,61.201274
2023-08-09T22:50:18.221Z,61.109903
2023-08-09T22:56:01.668Z,61.018531
2023-08-09T23:00:18.113Z,61.589957
2023-08-09T23:06:01.658Z,61.498354
2023-08-09T23:10:24.390Z,61.967798
2023-08-09T23:15:18.154Z,61.875968
2023-08-09T23:20:16.341Z,62.243130
2023-08-09T23:25:18.190Z,62.692481
2023-08-09T23:30:16.374Z,62.600205
2023-08-09T23:35:16.295Z,62.507927
2023-08-09T23:40:18.220Z,62.855043
2023-08-09T23:45:18.199Z,63.285457
2023-08-09T23:50:18.190Z,63.192748
2023-08-09T23:55:18.174Z,63.100037
